Time;durP1;ratioP1;P1;durP2;ratioP2;P2;SDS_P1;SDS_P2;PMS_P1;PMS_P2;Temp;Humidity;BMP_temperature;BMP_pressure;BME280_temperature;BME280_humidity;BME280_pressure;Samples;Min_cycle;Max_cycle;Signal;HPM_P1;HPM_P2
2022/01/22 00:00:15;;;;;;;17.25;6.32;;;6.40;99.90;;;;;;5019221;28;20398;-50
2022/01/22 00:02:40;;;;;;;19.63;7.32;;;6.40;99.90;;;;;;5018498;28;20543;-59
2022/01/22 00:05:08;;;;;;;25.25;7.35;;;6.40;99.90;;;;;;5019499;28;20168;-50
2022/01/22 00:07:33;;;;;;;19.17;7.85;;;6.50;99.90;;;;;;5023215;28;20437;-53
2022/01/22 00:10:04;;;;;;;17.23;7.13;;;6.40;99.90;;;;;;5024773;28;20037;-56
2022/01/22 00:15:06;;;;;;;27.52;10.98;;;6.50;99.90;;;;;;5021909;28;20040;-55
2022/01/22 00:17:32;;;;;;;20.58;6.72;;;6.50;99.90;;;;;;5022768;28;20109;-51
2022/01/22 00:19:58;;;;;;;17.02;6.57;;;6.50;99.90;;;;;;5007643;28;20211;-50
2022/01/22 00:22:27;;;;;;;17.50;6.43;;;6.50;99.90;;;;;;5020079;28;20403;-53
2022/01/22 00:24:57;;;;;;;19.00;6.10;;;6.50;99.90;;;;;;5019545;28;20077;-49
2022/01/22 00:27:23;;;;;;;13.85;6.85;;;6.50;99.90;;;;;;5021291;28;20053;-53
2022/01/22 00:29:48;;;;;;;17.15;6.40;;;6.50;99.90;;;;;;5020969;28;20135;-50
2022/01/22 00:32:14;;;;;;;17.75;6.32;;;6.40;99.90;;;;;;5004974;28;20099;-53
2022/01/22 00:34:40;;;;;;;16.63;6.35;;;6.40;99.90;;;;;;5022240;28;20071;-53
2022/01/22 00:37:05;;;;;;;16.00;5.97;;;6.40;99.90;;;;;;5026667;28;20033;-52
2022/01/22 00:39:33;;;;;;;15.88;5.38;;;6.40;99.90;;;;;;5022010;28;20052;-50
2022/01/22 00:41:59;;;;;;;18.35;5.70;;;6.40;99.90;;;;;;5009932;28;20123;-53
2022/01/22 00:44:25;;;;;;;16.42;5.82;;;6.40;99.90;;;;;;5021288;28;20435;-52
2022/01/22 00:46:52;;;;;;;16.48;6.30;;;6.40;99.90;;;;;;5028744;28;20103;-53
2022/01/22 00:49:18;;;;;;;18.10;6.22;;;6.40;99.90;;;;;;5019909;28;20042;-50
2022/01/22 00:51:43;;;;;;;16.73;6.00;;;6.40;99.90;;;;;;5029937;28;20026;-50
2022/01/22 00:54:09;;;;;;;11.90;5.25;;;6.40;99.90;;;;;;5018169;28;20678;-54
2022/01/22 00:56:35;;;;;;;16.88;5.68;;;6.40;99.90;;;;;;5026628;28;20022;-53
2022/01/22 00:59:00;;;;;;;15.52;5.78;;;6.40;99.90;;;;;;5018814;28;20018;-52
2022/01/22 01:01:27;;;;;;;21.67;5.80;;;6.40;99.90;;;;;;5017689;28;20038;-55
2022/01/22 01:03:52;;;;;;;20.80;6.38;;;6.40;99.90;;;;;;5017771;28;20037;-50
2022/01/22 01:06:18;;;;;;;19.80;5.78;;;6.30;99.90;;;;;;5018955;28;20541;-55
2022/01/22 01:08:44;;;;;;;16.83;6.22;;;6.30;99.90;;;;;;5017535;28;20026;-54
2022/01/22 01:11:12;;;;;;;20.25;5.78;;;6.40;99.90;;;;;;4991805;28;20222;-54
2022/01/22 01:13:43;;;;;;;12.63;5.07;;;6.40;99.90;;;;;;5021710;28;20025;-55
2022/01/22 01:16:19;;;;;;;14.18;4.63;;;6.40;99.90;;;;;;5021952;28;20075;-52
2022/01/22 01:32:36;;;;;;;17.40;6.03;;;6.30;99.90;;;;;;5021555;28;20111;-50
2022/01/22 01:35:06;;;;;;;17.17;4.93;;;6.30;99.90;;;;;;5027518;28;20452;-53
2022/01/22 01:37:32;;;;;;;16.45;5.03;;;6.40;99.90;;;;;;5022270;28;20053;-48
2022/01/22 01:40:01;;;;;;;17.42;5.20;;;6.40;99.90;;;;;;5021415;28;20475;-52
2022/01/22 01:42:42;;;;;;;18.98;5.68;;;6.30;99.90;;;;;;5018051;28;20108;-52
2022/01/22 01:45:09;;;;;;;17.15;5.25;;;6.30;99.90;;;;;;5008744;28;20038;-49
2022/01/22 01:47:37;;;;;;;17.33;5.25;;;6.30;99.90;;;;;;5013299;28;20065;-51
2022/01/22 01:50:05;;;;;;;15.43;5.57;;;6.30;99.90;;;;;;5021664;28;20040;-52
2022/01/22 01:52:40;;;;;;;17.90;5.45;;;6.30;99.90;;;;;;5020662;28;20108;-52
2022/01/22 01:55:13;;;;;;;19.65;6.05;;;6.30;99.90;;;;;;5021260;28;20121;-54
2022/01/22 01:57:42;;;;;;;15.55;5.85;;;6.30;99.90;;;;;;5021623;28;20109;-50
2022/01/22 02:00:23;;;;;;;15.77;5.75;;;6.30;99.90;;;;;;5019396;28;20049;-55
2022/01/22 02:02:49;;;;;;;15.68;5.90;;;6.30;99.90;;;;;;5017046;28;20041;-50
2022/01/22 02:05:17;;;;;;;17.17;5.70;;;6.30;99.90;;;;;;5017498;28;20034;-50
2022/01/22 02:07:44;;;;;;;18.98;6.20;;;6.30;99.90;;;;;;5022636;28;20099;-52
2022/01/22 02:10:19;;;;;;;17.58;5.40;;;6.30;99.90;;;;;;5019170;28;20033;-54
2022/01/22 02:23:37;;;;;;;19.00;5.60;;;6.30;99.90;;;;;;5021120;28;20593;-51
2022/01/22 02:26:05;;;;;;;22.25;5.97;;;6.30;99.90;;;;;;5019279;28;20034;-50
2022/01/22 02:28:31;;;;;;;17.10;5.47;;;6.30;99.90;;;;;;5002405;28;20029;-53
2022/01/22 02:31:22;;;;;;;16.05;6.00;;;6.30;99.90;;;;;;5016456;28;20412;-54
2022/01/22 02:36:29;;;;;;;17.77;6.22;;;6.20;99.90;;;;;;5018777;28;20018;-50
2022/01/22 02:41:25;;;;;;;20.30;7.70;;;6.30;99.90;;;;;;5019129;28;20030;-53
2022/01/22 02:43:53;;;;;;;21.52;8.43;;;6.30;99.90;;;;;;5026841;28;20045;-52
2022/01/22 02:46:23;;;;;;;24.17;9.32;;;6.30;99.90;;;;;;5019240;28;20026;-50
2022/01/22 02:48:50;;;;;;;26.25;10.10;;;6.30;99.90;;;;;;5028527;28;20036;-52
2022/01/22 02:51:16;;;;;;;28.85;10.63;;;6.30;99.90;;;;;;5018184;28;20361;-50
2022/01/22 02:53:41;;;;;;;25.85;11.25;;;6.30;99.90;;;;;;5028659;28;20167;-52
2022/01/22 02:56:07;;;;;;;30.02;12.68;;;6.30;99.90;;;;;;5018487;28;20136;-51
2022/01/22 02:58:33;;;;;;;26.75;12.43;;;6.30;99.90;;;;;;5024103;28;20034;-50
2022/01/22 03:00:59;;;;;;;38.13;13.98;;;6.30;99.90;;;;;;5028366;28;20041;-59
2022/01/22 03:03:25;;;;;;;46.33;15.20;;;6.30;99.90;;;;;;5022860;28;20388;-50
2022/01/22 03:05:51;;;;;;;38.05;13.35;;;6.30;99.90;;;;;;5026821;28;20046;-51
2022/01/22 03:08:16;;;;;;;44.40;14.55;;;6.30;99.90;;;;;;5025783;28;20034;-51
2022/01/22 03:10:50;;;;;;;43.35;15.38;;;6.30;99.90;;;;;;5025383;28;20036;-50
2022/01/22 03:23:12;;;;;;;58.50;15.38;;;6.30;99.90;;;;;;5027449;28;20120;-51
2022/01/22 03:28:27;;;;;;;37.97;13.77;;;6.30;99.90;;;;;;5027047;28;20120;-51
2022/01/22 03:30:56;;;;;;;35.08;13.55;;;6.30;99.90;;;;;;5026614;28;20036;-49
2022/01/22 03:33:24;;;;;;;32.45;13.13;;;6.30;99.90;;;;;;5027203;28;20549;-53
2022/01/22 03:35:55;;;;;;;43.75;13.25;;;6.30;99.90;;;;;;5025791;28;20510;-49
2022/01/22 03:38:22;;;;;;;45.90;13.82;;;6.30;99.90;;;;;;5028325;28;20475;-51
2022/01/22 03:40:49;;;;;;;35.42;13.38;;;6.30;99.90;;;;;;5025756;28;20260;-53
2022/01/22 03:43:16;;;;;;;35.28;13.10;;;6.30;99.90;;;;;;5028994;28;20061;-50
2022/01/22 03:45:41;;;;;;;35.13;12.25;;;6.30;99.90;;;;;;5024813;28;20091;-52
2022/01/22 03:48:07;;;;;;;36.10;12.25;;;6.30;99.90;;;;;;5005490;28;20407;-51
2022/01/22 03:50:33;;;;;;;35.13;13.02;;;6.30;99.90;;;;;;5002922;28;20128;-53
2022/01/22 03:52:58;;;;;;;34.90;11.82;;;6.30;99.90;;;;;;4992925;28;20479;-50
2022/01/22 03:58:09;;;;;;;38.35;13.52;;;6.40;99.90;;;;;;5023842;28;20514;-52
2022/01/22 04:00:35;;;;;;;35.55;12.95;;;6.40;99.90;;;;;;5028799;28;20033;-51
2022/01/22 04:05:26;;;;;;;29.48;11.63;;;6.40;99.90;;;;;;5029681;28;20030;-53
2022/01/22 04:10:26;;;;;;;35.72;10.90;;;6.40;99.90;;;;;;5026718;28;20054;-52
2022/01/22 04:13:03;;;;;;;29.30;10.77;;;6.40;99.90;;;;;;5018977;28;20022;-50
2022/01/22 04:15:31;;;;;;;32.38;10.85;;;6.40;99.90;;;;;;5011377;28;20052;-52
2022/01/22 04:28:44;;;;;;;30.77;10.30;;;6.30;99.90;;;;;;5028760;28;20475;-52
2022/01/22 04:31:09;;;;;;;35.33;10.18;;;6.40;99.90;;;;;;5022721;28;20040;-52
2022/01/22 04:33:35;;;;;;;32.17;9.75;;;6.30;99.90;;;;;;5028518;28;20104;-53
2022/01/22 04:36:01;;;;;;;29.42;10.25;;;6.30;99.90;;;;;;5004763;28;20487;-52
2022/01/22 04:38:26;;;;;;;36.13;11.25;;;6.30;99.90;;;;;;5027596;28;20033;-51
2022/01/22 04:40:52;;;;;;;32.45;10.43;;;6.40;99.90;;;;;;5001306;28;20096;-51
2022/01/22 04:43:18;;;;;;;29.95;11.00;;;6.40;99.90;;;;;;4993125;28;20439;-50
2022/01/22 04:45:55;;;;;;;34.25;10.98;;;6.30;99.90;;;;;;5001426;28;20042;-50
2022/01/22 04:56:33;;;;;;;37.03;11.52;;;6.40;99.90;;;;;;5014241;28;20115;-52
2022/01/22 04:59:01;;;;;;;35.13;12.27;;;6.40;99.90;;;;;;5022257;28;20026;-48
2022/01/22 05:01:26;;;;;;;36.83;12.55;;;6.40;99.90;;;;;;5003112;28;20048;-49
2022/01/22 05:03:52;;;;;;;37.45;11.95;;;6.40;99.90;;;;;;5030147;28;20446;-50
2022/01/22 05:06:17;;;;;;;47.40;12.95;;;6.40;99.90;;;;;;5020075;28;20099;-48
2022/01/22 05:08:43;;;;;;;37.33;12.88;;;6.40;99.90;;;;;;5023774;28;20059;-49
2022/01/22 05:11:09;;;;;;;37.78;11.88;;;6.40;99.90;;;;;;5021234;28;20124;-49
2022/01/22 05:13:38;;;;;;;44.70;13.20;;;6.40;99.90;;;;;;5014776;28;20045;-53
2022/01/22 05:16:04;;;;;;;49.03;15.07;;;6.30;99.90;;;;;;5021885;28;20545;-53
2022/01/22 05:18:30;;;;;;;45.90;14.85;;;6.40;99.90;;;;;;5022519;28;20056;-49
2022/01/22 05:21:07;;;;;;;49.30;16.92;;;6.30;99.90;;;;;;5019254;28;20030;-50
2022/01/22 05:23:37;;;;;;;56.67;17.25;;;6.30;99.90;;;;;;5021903;28;20541;-49
2022/01/22 05:26:08;;;;;;;49.63;15.25;;;6.30;99.90;;;;;;5020905;28;20057;-55
2022/01/22 05:37:08;;;;;;;48.03;15.05;;;6.20;99.90;;;;;;5018164;28;20476;-52
2022/01/22 05:39:35;;;;;;;45.42;13.43;;;6.20;99.90;;;;;;5011455;28;20128;-49
2022/01/22 05:42:04;;;;;;;40.70;13.80;;;6.20;99.90;;;;;;5017494;28;20030;-51
2022/01/22 05:44:33;;;;;;;38.28;13.45;;;6.20;99.90;;;;;;5026633;28;20040;-49
2022/01/22 05:47:03;;;;;;;36.47;12.93;;;6.20;99.90;;;;;;5017937;28;20017;-49
2022/01/22 05:49:31;;;;;;;39.90;14.23;;;6.20;99.90;;;;;;5026938;28;20040;-53
2022/01/22 05:51:59;;;;;;;41.67;14.55;;;6.20;99.90;;;;;;5018368;28;20037;-53
2022/01/22 05:59:39;;;;;;;37.20;14.48;;;6.20;99.90;;;;;;4991467;28;20045;-51
2022/01/22 06:02:10;;;;;;;48.38;15.23;;;6.20;99.90;;;;;;5017097;28;20503;-50
2022/01/22 06:04:36;;;;;;;55.92;17.10;;;6.20;99.90;;;;;;4990584;28;20119;-51
2022/01/22 06:07:03;;;;;;;58.97;17.58;;;6.20;99.90;;;;;;5007325;28;20025;-50
2022/01/22 06:09:31;;;;;;;62.05;18.38;;;6.20;99.90;;;;;;5009903;28;20030;-50
2022/01/22 06:12:04;;;;;;;65.28;17.95;;;6.20;99.90;;;;;;5016171;28;20026;-50
2022/01/22 06:14:30;;;;;;;61.28;17.75;;;6.20;99.90;;;;;;5021132;28;20484;-53
2022/01/22 06:16:55;;;;;;;62.10;18.85;;;6.20;99.90;;;;;;5024138;28;20036;-50
2022/01/22 06:19:21;;;;;;;69.72;18.52;;;6.20;99.90;;;;;;5018927;28;20706;-50
2022/01/22 06:21:50;;;;;;;72.93;18.70;;;6.20;99.90;;;;;;5022177;28;20120;-53
2022/01/22 06:24:16;;;;;;;68.38;18.02;;;6.20;99.90;;;;;;5020341;28;20056;-52
2022/01/22 06:26:41;;;;;;;72.68;17.48;;;6.20;99.90;;;;;;5022230;28;20037;-54
2022/01/22 06:29:07;;;;;;;58.58;17.35;;;6.20;99.90;;;;;;5021979;28;20100;-53
2022/01/22 06:31:33;;;;;;;73.60;18.77;;;6.20;99.90;;;;;;5020965;28;20044;-53
2022/01/22 06:33:59;;;;;;;60.10;17.05;;;6.20;99.90;;;;;;5024308;28;20030;-54
2022/01/22 06:36:26;;;;;;;56.40;17.25;;;6.20;99.90;;;;;;5025253;28;20072;-51
2022/01/22 06:38:57;;;;;;;61.25;18.50;;;6.20;99.90;;;;;;5025698;28;20030;-51
2022/01/22 06:44:07;;;;;;;65.43;19.77;;;6.20;99.90;;;;;;5025357;28;20091;-52
2022/01/22 06:46:33;;;;;;;57.78;18.05;;;6.20;99.90;;;;;;5028871;28;20104;-54
2022/01/22 06:48:58;;;;;;;56.17;18.52;;;6.20;99.90;;;;;;5024754;28;20117;-52
2022/01/22 06:51:26;;;;;;;57.97;17.75;;;6.20;99.90;;;;;;5028771;28;20044;-52
2022/01/22 06:53:53;;;;;;;48.88;17.50;;;6.20;99.90;;;;;;5024421;28;20483;-54
2022/01/22 06:56:21;;;;;;;51.15;17.20;;;6.20;99.90;;;;;;5029106;28;20033;-52
2022/01/22 06:58:50;;;;;;;61.38;18.25;;;6.20;99.90;;;;;;5021269;28;20396;-52
2022/01/22 07:01:16;;;;;;;56.00;18.17;;;6.20;99.90;;;;;;5013213;28;20030;-50
2022/01/22 07:03:42;;;;;;;52.47;16.08;;;6.20;99.90;;;;;;5024016;28;20028;-59
2022/01/22 07:06:09;;;;;;;54.53;16.10;;;6.20;99.90;;;;;;5031782;28;20061;-50
2022/01/22 07:08:34;;;;;;;50.78;14.80;;;6.20;99.90;;;;;;5021155;28;20022;-52
2022/01/22 07:11:00;;;;;;;47.80;14.98;;;6.20;99.90;;;;;;5028023;28;20053;-49
2022/01/22 07:13:26;;;;;;;41.97;13.70;;;6.20;99.90;;;;;;5003063;28;20434;-49
2022/01/22 07:15:51;;;;;;;47.53;14.70;;;6.20;99.90;;;;;;5024808;28;20337;-50
2022/01/22 07:18:17;;;;;;;45.88;14.45;;;6.20;99.90;;;;;;5023771;28;20065;-51
2022/01/22 07:20:44;;;;;;;51.85;14.43;;;6.10;99.90;;;;;;5025243;28;20029;-56
2022/01/22 07:23:21;;;;;;;56.92;15.05;;;6.20;99.90;;;;;;5024648;28;20353;-50
2022/01/22 07:25:47;;;;;;;64.75;16.33;;;6.20;99.90;;;;;;5026045;28;20079;-49
2022/01/22 07:28:13;;;;;;;61.65;16.13;;;6.20;99.90;;;;;;5025274;28;20034;-50
2022/01/22 07:30:40;;;;;;;57.75;16.67;;;6.20;99.90;;;;;;5025766;28;20027;-50
2022/01/22 07:33:06;;;;;;;58.50;16.13;;;6.20;99.90;;;;;;5025054;28;20040;-50
2022/01/22 07:35:35;;;;;;;50.40;14.23;;;6.20;99.90;;;;;;5017322;28;20029;-52
2022/01/22 07:38:02;;;;;;;48.40;14.13;;;6.20;99.90;;;;;;5023266;28;20034;-50
2022/01/22 07:40:31;;;;;;;54.85;14.80;;;6.20;99.90;;;;;;5025685;28;20032;-51
2022/01/22 07:42:57;;;;;;;49.10;13.75;;;6.10;99.90;;;;;;5023160;28;20038;-48
2022/01/22 07:45:23;;;;;;;56.90;14.10;;;6.10;99.90;;;;;;5025964;28;20119;-51
2022/01/22 07:47:48;;;;;;;55.95;14.55;;;6.20;99.90;;;;;;5023722;28;20349;-51
2022/01/22 07:50:14;;;;;;;41.85;12.07;;;6.20;99.90;;;;;;5027326;28;20112;-51
2022/01/22 07:52:40;;;;;;;35.75;11.00;;;6.20;99.90;;;;;;5024520;28;20043;-53
2022/01/22 07:55:07;;;;;;;42.47;11.00;;;6.20;99.90;;;;;;5027890;28;20034;-49
2022/01/22 07:57:33;;;;;;;33.90;9.68;;;6.20;99.90;;;;;;5028688;28;20349;-51
2022/01/22 07:59:58;;;;;;;31.77;9.70;;;6.20;99.90;;;;;;5010945;28;20061;-51
2022/01/22 08:02:25;;;;;;;31.77;9.80;;;6.20;99.90;;;;;;5021267;28;20082;-56
2022/01/22 08:04:51;;;;;;;36.50;9.65;;;6.20;99.90;;;;;;5013615;28;20036;-49
2022/01/22 08:07:16;;;;;;;34.13;10.02;;;6.20;99.90;;;;;;5019999;28;20033;-49
2022/01/22 08:09:44;;;;;;;29.38;9.35;;;6.20;99.90;;;;;;5023235;28;20060;-52
2022/01/22 08:12:10;;;;;;;31.75;10.32;;;6.20;99.90;;;;;;5020542;28;20061;-49
2022/01/22 08:14:35;;;;;;;27.10;8.98;;;6.30;99.90;;;;;;5031703;28;20013;-49
2022/01/22 08:17:01;;;;;;;30.27;10.45;;;6.20;99.90;;;;;;5021215;28;20030;-49
2022/01/22 08:19:29;;;;;;;30.40;9.55;;;6.20;99.90;;;;;;5022978;28;20068;-54
2022/01/22 08:21:55;;;;;;;30.92;8.88;;;6.20;99.90;;;;;;5021436;28;20387;-53
2022/01/22 08:24:25;;;;;;;20.70;8.27;;;6.20;99.90;;;;;;5023076;28;20026;-50
2022/01/22 08:27:06;;;;;;;27.88;8.60;;;6.30;99.90;;;;;;5022416;28;20044;-52
2022/01/22 08:29:32;;;;;;;25.85;9.05;;;6.30;99.90;;;;;;5022770;28;20083;-50
2022/01/22 08:32:09;;;;;;;25.92;8.10;;;6.30;99.90;;;;;;5022218;28;20641;-50
2022/01/22 08:37:21;;;;;;;21.67;7.97;;;6.40;99.90;;;;;;5022152;28;20359;-53
2022/01/22 08:39:46;;;;;;;23.70;8.88;;;6.30;99.90;;;;;;5023738;28;20030;-50
2022/01/22 08:42:12;;;;;;;22.50;8.68;;;6.30;99.90;;;;;;5009574;28;20033;-50
2022/01/22 08:44:40;;;;;;;23.30;8.48;;;6.40;99.90;;;;;;5022458;28;20407;-51
2022/01/22 08:47:06;;;;;;;17.35;8.55;;;6.40;99.90;;;;;;5023549;28;20033;-50
2022/01/22 08:49:32;;;;;;;21.52;8.32;;;6.40;99.90;;;;;;5022268;28;20026;-50
2022/01/22 08:51:57;;;;;;;31.00;9.77;;;6.40;99.90;;;;;;5020479;28;20036;-51
2022/01/22 08:54:23;;;;;;;22.42;9.15;;;6.30;99.90;;;;;;5020677;28;20032;-50
2022/01/22 08:56:49;;;;;;;21.33;9.48;;;6.30;99.90;;;;;;5025174;28;20037;-50
2022/01/22 08:59:15;;;;;;;25.92;9.23;;;6.30;99.90;;;;;;5013959;28;20022;-50
2022/01/22 09:01:42;;;;;;;28.27;9.32;;;6.30;99.90;;;;;;5013404;28;20033;-50
2022/01/22 09:04:08;;;;;;;32.92;9.65;;;6.30;99.90;;;;;;5017726;28;20034;-52
2022/01/22 09:06:34;;;;;;;34.45;10.18;;;6.40;99.90;;;;;;4999670;28;20550;-50
2022/01/22 09:09:11;;;;;;;29.42;11.15;;;6.40;99.90;;;;;;5021600;28;20036;-50
2022/01/22 09:11:39;;;;;;;28.80;10.32;;;6.40;99.90;;;;;;5020863;28;20109;-50
2022/01/22 09:14:07;;;;;;;31.98;11.52;;;6.50;99.90;;;;;;5016903;28;20482;-51
2022/01/22 09:16:33;;;;;;;39.97;11.90;;;6.40;99.90;;;;;;5017457;28;20061;-50
2022/01/22 09:19:06;;;;;;;30.70;11.32;;;6.50;99.90;;;;;;5014781;28;20022;-52
2022/01/22 09:21:34;;;;;;;31.80;11.02;;;6.40;99.90;;;;;;5017465;28;20101;-51
2022/01/22 09:24:01;;;;;;;33.15;11.25;;;6.50;99.90;;;;;;5016892;28;20104;-50
2022/01/22 09:26:29;;;;;;;25.90;10.52;;;6.50;99.90;;;;;;5023054;28;20029;-49
2022/01/22 09:28:57;;;;;;;38.45;9.60;;;6.50;99.90;;;;;;5024364;28;20057;-50
2022/01/22 09:31:23;;;;;;;23.70;9.55;;;6.50;99.90;;;;;;5024953;28;20049;-50
2022/01/22 09:33:48;;;;;;;27.70;9.23;;;6.40;99.90;;;;;;5014448;28;20032;-52
2022/01/22 09:36:14;;;;;;;31.60;10.18;;;6.50;99.90;;;;;;5010225;28;20044;-51
2022/01/22 09:38:40;;;;;;;32.10;11.20;;;6.50;99.90;;;;;;5021864;28;20026;-51
2022/01/22 09:41:06;;;;;;;29.92;11.23;;;6.40;99.90;;;;;;5015133;28;20049;-51
2022/01/22 09:43:31;;;;;;;27.33;10.00;;;6.40;99.90;;;;;;5017736;28;20034;-53
2022/01/22 09:45:57;;;;;;;27.02;10.18;;;6.50;99.90;;;;;;5016645;28;20044;-53
2022/01/22 09:48:26;;;;;;;26.65;9.80;;;6.60;99.90;;;;;;5019781;28;20037;-54
2022/01/22 09:50:52;;;;;;;26.83;9.15;;;6.60;99.90;;;;;;5014617;28;20063;-49
2022/01/22 09:53:19;;;;;;;25.05;8.82;;;6.70;99.90;;;;;;5022788;28;20025;-52
2022/01/22 09:55:45;;;;;;;19.45;9.13;;;6.70;99.90;;;;;;5018305;28;20033;-51
2022/01/22 09:58:11;;;;;;;23.98;8.40;;;6.70;99.90;;;;;;5015877;28;20033;-52
2022/01/22 10:00:36;;;;;;;20.70;8.88;;;6.80;99.90;;;;;;5020225;28;20030;-52
2022/01/22 10:03:02;;;;;;;26.23;8.85;;;6.70;99.90;;;;;;5010254;28;20041;-50
2022/01/22 10:05:40;;;;;;;18.02;8.50;;;6.80;99.90;;;;;;4996447;28;20062;-53
2022/01/22 10:08:31;;;;;;;22.90;9.38;;;6.80;99.90;;;;;;5003489;28;20109;-51
2022/01/22 10:11:00;;;;;;;22.55;9.30;;;6.80;99.90;;;;;;5008805;28;20026;-51
2022/01/22 10:13:50;;;;;;;24.40;8.10;;;6.80;99.90;;;;;;5009004;28;20029;-54
2022/01/22 10:16:18;;;;;;;20.45;7.28;;;6.80;99.90;;;;;;5010887;28;20029;-52
2022/01/22 10:18:43;;;;;;;18.98;7.50;;;6.80;99.90;;;;;;5008968;28;20196;-56
2022/01/22 10:21:12;;;;;;;20.10;7.10;;;6.80;99.90;;;;;;5008828;28;20934;-54
2022/01/22 10:23:39;;;;;;;20.08;8.05;;;6.80;99.90;;;;;;5008461;28;20041;-55
2022/01/22 10:26:11;;;;;;;22.65;8.25;;;6.80;99.90;;;;;;5007470;28;20051;-51
2022/01/22 10:28:41;;;;;;;24.58;8.13;;;6.80;99.90;;;;;;5021131;28;20030;-50
2022/01/22 10:31:17;;;;;;;20.42;8.00;;;6.90;99.90;;;;;;5025204;28;20030;-53
2022/01/22 10:33:42;;;;;;;18.98;8.35;;;6.90;99.90;;;;;;5010623;28;20026;-52
2022/01/22 10:36:15;;;;;;;28.83;10.07;;;6.90;99.90;;;;;;5016486;28;20531;-51
2022/01/22 10:38:45;;;;;;;22.10;10.00;;;6.90;99.90;;;;;;5012908;28;20033;-55
2022/01/22 10:41:12;;;;;;;34.88;11.65;;;6.90;99.90;;;;;;5018343;28;20029;-53
2022/01/22 10:43:43;;;;;;;22.42;9.75;;;6.90;99.90;;;;;;5028828;28;20492;-62
2022/01/22 10:48:55;;;;;;;25.02;11.40;;;7.00;99.90;;;;;;5021129;28;20057;-54
2022/01/22 10:51:22;;;;;;;23.85;10.30;;;6.90;99.90;;;;;;5011433;28;20026;-58
2022/01/22 10:53:56;;;;;;;19.55;9.20;;;6.90;99.90;;;;;;5028790;28;20065;-56
2022/01/22 10:56:23;;;;;;;16.25;8.63;;;6.90;99.90;;;;;;5026427;28;20386;-57
2022/01/22 10:58:57;;;;;;;24.90;9.00;;;7.00;99.90;;;;;;5014858;28;20390;-56
2022/01/22 11:01:31;;;;;;;28.15;9.00;;;6.90;99.90;;;;;;5028390;28;20022;-55
2022/01/22 11:04:10;;;;;;;16.80;7.40;;;7.00;99.90;;;;;;5021217;28;20437;-57
2022/01/22 11:06:38;;;;;;;21.30;8.15;;;7.00;99.90;;;;;;5013896;28;20025;-55
2022/01/22 11:09:06;;;;;;;17.45;7.93;;;6.90;99.90;;;;;;5021805;28;20080;-54
2022/01/22 11:11:37;;;;;;;15.77;7.45;;;7.00;99.90;;;;;;5011465;28;20479;-54
2022/01/22 11:14:13;;;;;;;15.55;6.50;;;7.00;99.90;;;;;;5022935;28;20033;-52
2022/01/22 11:16:41;;;;;;;10.40;5.38;;;7.00;99.90;;;;;;4989599;28;20034;-53
2022/01/22 11:19:13;;;;;;;11.68;4.80;;;7.00;99.90;;;;;;5015944;28;20062;-54
2022/01/22 11:21:44;;;;;;;12.10;4.27;;;7.00;99.90;;;;;;5010934;28;20476;-55
2022/01/22 11:24:12;;;;;;;7.10;3.50;;;7.00;99.90;;;;;;5022802;28;20121;-52
2022/01/22 11:26:39;;;;;;;4.78;2.50;;;7.00;99.90;;;;;;5017157;28;20029;-54
2022/01/22 11:29:05;;;;;;;3.72;2.10;;;7.00;99.90;;;;;;5022420;28;20136;-52
2022/01/22 11:31:33;;;;;;;3.15;2.05;;;7.00;99.90;;;;;;5008232;28;20033;-56
2022/01/22 11:34:01;;;;;;;4.72;2.30;;;7.00;99.90;;;;;;4992015;28;20095;-52
2022/01/22 11:36:41;;;;;;;5.38;3.03;;;7.00;99.90;;;;;;5021080;28;20022;-56
2022/01/22 11:39:13;;;;;;;5.00;2.83;;;7.00;99.90;;;;;;5008674;28;20014;-53
2022/01/22 11:41:52;;;;;;;5.53;2.88;;;7.00;99.90;;;;;;5018766;28;20034;-55
2022/01/22 11:44:25;;;;;;;5.15;2.95;;;7.00;99.90;;;;;;5021809;28;20073;-54
2022/01/22 11:47:05;;;;;;;7.78;3.33;;;7.00;99.90;;;;;;5023000;28;20033;-55
2022/01/22 11:49:31;;;;;;;8.25;4.00;;;7.00;99.90;;;;;;5014137;28;20037;-54
2022/01/22 11:52:12;;;;;;;7.22;4.65;;;6.90;99.90;;;;;;5020728;28;20101;-50
2022/01/22 11:55:11;;;;;;;8.88;5.22;;;6.90;99.90;;;;;;5016559;28;20030;-54
2022/01/22 11:57:37;;;;;;;14.60;6.05;;;6.90;99.90;;;;;;5009410;28;20466;-55
2022/01/22 12:00:22;;;;;;;15.07;6.50;;;6.90;99.90;;;;;;5018350;28;20422;-54
2022/01/22 12:03:08;;;;;;;11.10;5.55;;;6.90;99.90;;;;;;5022651;28;20116;-55
2022/01/22 12:05:55;;;;;;;8.25;4.68;;;6.90;99.90;;;;;;5004413;28;20045;-53
2022/01/22 12:08:24;;;;;;;9.60;4.60;;;6.90;99.90;;;;;;5003576;28;20050;-55
2022/01/22 12:16:44;;;;;;;8.77;4.20;;;7.00;99.90;;;;;;5010268;28;20091;-55
2022/01/22 12:19:52;;;;;;;9.35;4.88;;;7.10;99.90;;;;;;5018620;28;20048;-54
2022/01/22 12:22:33;;;;;;;8.38;4.45;;;7.10;99.90;;;;;;5022249;28;20066;-56
2022/01/22 12:25:22;;;;;;;9.05;4.70;;;7.10;99.90;;;;;;5025889;28;20030;-51
2022/01/22 12:27:53;;;;;;;9.73;4.60;;;7.10;99.90;;;;;;4993182;28;20030;-56
2022/01/22 12:30:43;;;;;;;9.80;4.38;;;7.10;99.90;;;;;;5028339;28;20037;-53
2022/01/22 12:33:28;;;;;;;8.00;3.97;;;7.10;99.90;;;;;;5018541;28;20060;-56
2022/01/22 12:35:58;;;;;;;11.07;4.57;;;7.10;99.90;;;;;;5018687;28;20124;-56
2022/01/22 12:38:37;;;;;;;9.90;4.35;;;7.10;99.90;;;;;;5012219;28;20465;-53
2022/01/22 12:44:04;;;;;;;9.85;4.78;;;7.00;99.90;;;;;;5012299;28;20038;-55
2022/01/22 12:46:30;;;;;;;11.90;4.78;;;7.00;99.90;;;;;;5022418;28;20108;-52
2022/01/22 12:48:57;;;;;;;11.57;5.18;;;7.10;99.90;;;;;;5023977;28;20030;-52
2022/01/22 12:51:25;;;;;;;9.18;5.07;;;7.10;99.90;;;;;;5021128;28;20506;-54
2022/01/22 12:53:51;;;;;;;8.23;4.60;;;7.10;99.90;;;;;;5017844;28;20384;-55
2022/01/22 12:59:07;;;;;;;7.82;5.25;;;7.20;99.90;;;;;;5030386;28;20029;-52
2022/01/22 13:01:35;;;;;;;11.02;6.70;;;7.20;99.90;;;;;;5019585;28;20033;-53
2022/01/22 13:04:05;;;;;;;10.02;5.43;;;7.20;99.90;;;;;;5018060;28;20034;-49
2022/01/22 13:06:47;;;;;;;11.07;5.50;;;7.30;99.90;;;;;;5029975;28;20511;-49
2022/01/22 13:09:13;;;;;;;11.93;5.53;;;7.20;99.90;;;;;;5018191;28;20476;-51
2022/01/22 13:11:47;;;;;;;10.70;5.38;;;7.30;99.90;;;;;;5011481;28;20037;-54
2022/01/22 13:14:27;;;;;;;10.35;5.88;;;7.30;99.90;;;;;;5028711;28;20021;-50
2022/01/22 13:16:55;;;;;;;9.07;5.47;;;7.30;99.90;;;;;;5029670;28;20017;-56
2022/01/22 13:19:21;;;;;;;9.32;4.97;;;7.30;99.90;;;;;;5030188;28;20533;-57
2022/01/22 13:21:51;;;;;;;8.32;4.75;;;7.20;99.90;;;;;;4989592;28;20046;-54
2022/01/22 13:24:22;;;;;;;9.55;5.05;;;7.20;99.90;;;;;;5011102;28;20044;-56
2022/01/22 13:27:05;;;;;;;8.60;3.65;;;7.20;99.90;;;;;;5002014;28;20037;-55
2022/01/22 13:29:35;;;;;;;10.32;4.00;;;7.10;99.90;;;;;;4992415;28;20038;-54
2022/01/22 13:32:09;;;;;;;5.97;3.47;;;7.20;99.90;;;;;;5008872;28;20630;-53
2022/01/22 13:38:21;;;;;;;8.98;2.97;;;7.10;99.90;;;;;;5029119;28;20021;-52
2022/01/22 13:49:18;;;;;;;6.85;2.78;;;7.10;99.90;;;;;;4990848;28;20096;-51
2022/01/22 13:51:45;;;;;;;6.82;2.60;;;7.10;99.90;;;;;;4989080;28;20038;-52
2022/01/22 13:54:11;;;;;;;5.05;2.28;;;7.10;99.90;;;;;;5003216;28;20481;-54
2022/01/22 13:56:56;;;;;;;7.93;3.67;;;7.20;99.90;;;;;;5013252;28;20026;-52
2022/01/22 13:59:30;;;;;;;4.90;2.20;;;7.30;99.90;;;;;;5012484;28;20469;-57
2022/01/22 14:05:26;;;;;;;6.07;2.17;;;7.40;99.90;;;;;;4986006;28;20133;-48
2022/01/22 14:08:02;;;;;;;5.63;2.17;;;7.30;99.90;;;;;;5020938;28;20033;-52
2022/01/22 14:10:28;;;;;;;5.22;2.10;;;7.30;99.90;;;;;;5018306;28;20026;-51
2022/01/22 14:13:08;;;;;;;3.88;2.03;;;7.30;99.90;;;;;;5018893;28;20040;-50
2022/01/22 14:15:38;;;;;;;3.72;2.35;;;7.30;99.90;;;;;;5018480;28;20025;-51
2022/01/22 14:18:17;;;;;;;5.97;2.70;;;7.20;99.90;;;;;;5020612;28;20025;-51
2022/01/22 14:21:08;;;;;;;7.43;2.53;;;7.20;99.90;;;;;;5010257;28;20070;-51
2022/01/22 14:23:36;;;;;;;6.28;2.78;;;7.30;99.90;;;;;;5006476;28;20065;-51
2022/01/22 14:26:23;;;;;;;5.93;3.03;;;7.30;99.90;;;;;;5020706;28;20112;-50
2022/01/22 14:28:58;;;;;;;8.02;3.25;;;7.30;99.90;;;;;;5017524;28;20204;-49
2022/01/22 14:31:24;;;;;;;6.47;2.90;;;7.40;99.90;;;;;;4995666;28;20033;-54
2022/01/22 14:33:50;;;;;;;7.03;2.63;;;7.30;99.90;;;;;;5027241;28;20360;-50
2022/01/22 14:36:18;;;;;;;6.07;2.63;;;7.20;99.90;;;;;;5024275;28;20021;-54
2022/01/22 14:38:56;;;;;;;5.65;2.25;;;7.20;99.90;;;;;;5009359;28;20054;-53
2022/01/22 14:44:29;;;;;;;5.13;2.40;;;7.20;99.90;;;;;;5009953;28;20038;-54
2022/01/22 14:47:08;;;;;;;4.57;3.00;;;7.20;99.90;;;;;;5009496;28;20123;-51
2022/01/22 14:49:38;;;;;;;4.18;2.40;;;7.10;99.90;;;;;;5009888;28;20157;-54
2022/01/22 14:52:05;;;;;;;5.13;2.90;;;7.10;99.90;;;;;;5008949;28;20034;-54
2022/01/22 14:54:34;;;;;;;7.15;2.88;;;7.00;99.90;;;;;;4999245;28;20361;-52
2022/01/22 14:57:00;;;;;;;6.82;2.50;;;7.00;99.90;;;;;;4993697;28;20026;-51
2022/01/22 14:59:26;;;;;;;6.30;2.80;;;6.90;99.90;;;;;;4993614;28;20034;-50